createdAt,value
2023-05-14T00:16:58.375Z,14.44
2023-05-14T00:19:24.957Z,14.44
2023-05-14T00:21:51.589Z,14.51
2023-05-14T00:24:18.399Z,14.44
2023-05-14T00:26:45.042Z,14.50
2023-05-14T00:29:11.594Z,14.53
2023-05-14T00:31:38.316Z,14.54
2023-05-14T00:34:06.229Z,14.54
2023-05-14T00:36:32.823Z,14.59
2023-05-14T00:47:11.005Z,14.55
2023-05-14T00:49:39.784Z,14.46
2023-05-14T00:52:06.800Z,14.46
2023-05-14T00:54:33.945Z,14.50
2023-05-14T00:57:01.109Z,14.38
2023-05-14T00:59:27.716Z,14.38
2023-05-14T01:01:54.354Z,14.39
2023-05-14T01:32:40.370Z,13.85
2023-05-14T01:35:09.465Z,13.90
2023-05-14T01:37:36.951Z,13.77
2023-05-14T01:40:06.363Z,13.82
2023-05-14T01:42:33.121Z,13.69
2023-05-14T01:45:00.270Z,13.69
2023-05-14T01:47:26.908Z,13.63
2023-05-14T01:49:54.868Z,13.59
2023-05-14T01:52:21.519Z,13.58
2023-05-14T01:54:48.467Z,13.56
2023-05-14T01:57:15.322Z,13.45
2023-05-14T01:59:41.945Z,13.44
2023-05-14T02:02:08.551Z,13.35
2023-05-14T02:04:35.565Z,13.32
2023-05-14T02:07:03.660Z,13.28
2023-05-14T02:29:34.014Z,12.95
2023-05-14T02:32:00.602Z,12.89
2023-05-14T02:34:27.180Z,12.84
2023-05-14T02:36:53.785Z,12.83
2023-05-14T02:39:20.338Z,12.86
2023-05-14T02:41:46.941Z,12.72
2023-05-14T02:44:13.464Z,12.73
2023-05-14T02:46:41.493Z,12.64
2023-05-14T02:49:08.029Z,12.62
2023-05-14T02:51:34.989Z,12.64
2023-05-14T02:54:01.908Z,12.51
2023-05-14T02:56:28.474Z,12.42
2023-05-14T02:58:55.116Z,12.33
2023-05-14T03:01:22.348Z,12.33
2023-05-14T03:03:50.667Z,12.31
2023-05-14T03:18:38.637Z,12.20
2023-05-14T03:21:06.617Z,12.16
2023-05-14T03:23:33.480Z,12.10
2023-05-14T03:26:00.471Z,11.95
2023-05-14T03:28:27.655Z,11.93
2023-05-14T03:30:54.631Z,11.90
2023-05-14T03:33:21.444Z,11.81
2023-05-14T03:36:29.401Z,11.80
2023-05-14T03:38:57.311Z,11.74
2023-05-14T03:41:23.884Z,11.69
2023-05-14T03:43:50.430Z,11.69
2023-05-14T03:46:16.945Z,11.62
2023-05-14T03:48:43.633Z,11.56
2023-05-14T03:51:10.515Z,11.54
2023-05-14T03:53:37.515Z,11.51
2023-05-14T03:56:06.159Z,11.48
2023-05-14T03:58:33.839Z,11.54
2023-05-14T04:01:00.480Z,11.53
2023-05-14T04:03:27.214Z,11.52
2023-05-14T04:22:20.206Z,11.34
2023-05-14T04:24:46.761Z,11.41
2023-05-14T04:27:20.006Z,11.45
2023-05-14T04:29:46.679Z,11.45
2023-05-14T04:32:13.178Z,11.42
2023-05-14T04:34:39.763Z,11.46
2023-05-14T04:37:06.282Z,11.52
2023-05-14T04:47:43.893Z,11.59
2023-05-14T04:50:10.791Z,11.59
2023-05-14T04:52:37.973Z,11.65
2023-05-14T04:55:05.482Z,11.61
2023-05-14T04:57:32.316Z,11.64
2023-05-14T04:59:59.346Z,11.66
2023-05-14T05:02:26.140Z,11.77
2023-05-14T05:04:54.650Z,11.80
2023-05-14T05:07:21.246Z,11.76
2023-05-14T05:09:47.826Z,11.93
2023-05-14T05:12:14.412Z,11.97
2023-05-14T05:14:40.958Z,12.04
2023-05-14T05:17:08.340Z,12.10
2023-05-14T05:19:43.250Z,12.17
2023-05-14T05:42:34.038Z,12.76
2023-05-14T05:45:00.595Z,12.82
2023-05-14T05:47:27.219Z,12.83
2023-05-14T05:49:53.733Z,12.89
2023-05-14T05:52:20.378Z,12.95
2023-05-14T05:54:47.009Z,12.92
2023-05-14T05:57:13.605Z,13.02
2023-05-14T05:59:41.516Z,12.97
2023-05-14T06:02:08.076Z,13.06
2023-05-14T06:04:34.769Z,13.11
2023-05-14T06:07:01.449Z,13.17
2023-05-14T06:09:28.026Z,13.22
2023-05-14T06:11:54.612Z,13.23
2023-05-14T06:14:21.187Z,13.28
2023-05-14T06:16:49.117Z,13.30
2023-05-14T06:19:15.911Z,13.34
2023-05-14T06:21:42.611Z,13.37
2023-05-14T06:24:09.629Z,13.44
2023-05-14T06:26:36.243Z,13.50
2023-05-14T06:29:02.838Z,13.54
2023-05-14T06:31:29.367Z,13.68
2023-05-14T06:33:57.315Z,13.74
2023-05-14T06:36:23.909Z,13.76
2023-05-14T06:38:50.509Z,13.86
2023-05-14T06:41:17.148Z,13.87
2023-05-14T06:43:43.765Z,13.96
2023-05-14T06:46:10.329Z,14.05
2023-05-14T06:48:36.910Z,14.08
2023-05-14T06:51:04.920Z,14.12
2023-05-14T06:53:31.515Z,14.17
2023-05-14T06:55:58.058Z,14.25
2023-05-14T06:58:24.668Z,14.26
2023-05-14T07:00:53.854Z,14.38
2023-05-14T07:03:20.498Z,14.44
2023-05-14T07:05:49.882Z,14.49
2023-05-14T07:08:17.841Z,14.54
2023-05-14T07:10:44.558Z,14.61
2023-05-14T07:13:11.272Z,14.69
2023-05-14T07:15:37.858Z,14.75
2023-05-14T07:18:04.646Z,14.77
2023-05-14T07:20:31.232Z,14.80
2023-05-14T07:22:57.749Z,14.92
2023-05-14T07:25:25.656Z,15.00
2023-05-14T07:27:52.207Z,15.07
2023-05-14T07:30:19.352Z,15.18
2023-05-14T07:32:45.898Z,15.26
2023-05-14T07:35:12.507Z,15.36
2023-05-14T07:37:39.167Z,15.42
2023-05-14T07:40:06.963Z,15.49
2023-05-14T07:42:36.986Z,15.60
2023-05-14T07:45:04.308Z,15.67
2023-05-14T07:47:31.065Z,15.77
2023-05-14T07:49:58.219Z,15.82
2023-05-14T07:52:27.873Z,15.94
2023-05-14T07:54:54.488Z,15.94
2023-05-14T07:57:21.206Z,16.02
2023-05-14T07:59:49.178Z,16.11
2023-05-14T08:02:15.740Z,16.24
2023-05-14T08:04:42.421Z,16.34
2023-05-14T08:07:09.003Z,16.45
2023-05-14T08:09:35.585Z,16.58
2023-05-14T08:12:02.192Z,16.66
2023-05-14T08:14:28.881Z,16.76
2023-05-14T08:16:56.772Z,16.97
2023-05-14T08:19:23.371Z,17.17
2023-05-14T08:21:49.955Z,17.34
2023-05-14T08:24:16.614Z,17.55
2023-05-14T08:26:43.207Z,17.85
2023-05-14T08:29:11.167Z,18.10
2023-05-14T08:31:38.571Z,18.45
2023-05-14T08:34:06.448Z,18.92
2023-05-14T08:36:32.963Z,19.23
2023-05-14T08:38:59.624Z,19.54
2023-05-14T08:41:26.199Z,19.75
2023-05-14T08:44:00.885Z,19.97
2023-05-14T08:46:30.377Z,19.75
2023-05-14T08:49:05.000Z,20.70
2023-05-14T08:51:33.415Z,20.69
2023-05-14T08:54:02.553Z,20.27
2023-05-14T08:56:32.157Z,20.20
2023-05-14T08:58:58.825Z,21.70
2023-05-14T09:01:25.827Z,24.15
2023-05-14T09:03:54.361Z,25.78
2023-05-14T09:06:21.992Z,27.51
2023-05-14T09:08:49.946Z,28.05
2023-05-14T09:11:16.487Z,28.44
2023-05-14T09:13:43.121Z,26.66
2023-05-14T09:16:09.820Z,25.49
2023-05-14T09:18:36.763Z,24.56
2023-05-14T09:21:04.378Z,23.51
2023-05-14T09:23:32.697Z,22.81
2023-05-14T09:26:04.401Z,23.13
2023-05-14T09:28:31.057Z,24.85
2023-05-14T09:30:57.623Z,26.93
2023-05-14T09:33:27.297Z,28.86
2023-05-14T09:35:58.363Z,29.53
2023-05-14T09:38:28.453Z,30.67
2023-05-14T09:40:55.330Z,31.18
2023-05-14T09:43:23.283Z,31.99
2023-05-14T09:45:50.001Z,31.83
2023-05-14T09:48:16.643Z,31.09
2023-05-14T09:50:43.555Z,31.09
2023-05-14T09:53:10.303Z,31.36
2023-05-14T09:55:37.421Z,32.05
2023-05-14T09:58:04.441Z,32.37
2023-05-14T10:00:35.100Z,32.94
2023-05-14T10:03:05.984Z,33.61
2023-05-14T10:05:35.113Z,33.65
2023-05-14T10:08:05.684Z,33.64
2023-05-14T10:10:32.987Z,33.54
2023-05-14T10:13:03.795Z,33.51
2023-05-14T10:15:39.583Z,33.37
2023-05-14T10:18:10.832Z,33.36
2023-05-14T10:20:39.896Z,33.22
2023-05-14T10:23:06.772Z,33.67
2023-05-14T10:25:33.978Z,34.13
2023-05-14T10:28:00.836Z,34.33
2023-05-14T10:30:27.520Z,33.98
2023-05-14T10:33:11.191Z,35.00
2023-05-14T10:35:57.784Z,34.35
2023-05-14T10:38:26.932Z,33.11
2023-05-14T10:40:56.212Z,31.67
2023-05-14T10:43:26.347Z,29.97
2023-05-14T10:45:53.365Z,30.24
2023-05-14T10:48:21.877Z,30.74
2023-05-14T10:50:49.649Z,29.14
2023-05-14T10:53:16.246Z,28.22
2023-05-14T10:55:43.244Z,27.57
2023-05-14T10:58:10.968Z,27.20
2023-05-14T11:00:38.166Z,26.28
2023-05-14T11:03:06.644Z,25.78
2023-05-14T11:05:34.735Z,25.23
2023-05-14T11:08:05.753Z,24.70
2023-05-14T11:10:32.371Z,24.36
2023-05-14T11:12:59.254Z,23.86
2023-05-14T11:15:26.619Z,23.63
2023-05-14T11:17:53.768Z,23.66
2023-05-14T11:20:21.056Z,23.69
2023-05-14T11:22:49.282Z,23.62
2023-05-14T11:25:15.937Z,23.60
2023-05-14T11:27:44.119Z,23.64
2023-05-14T11:30:14.212Z,23.41
2023-05-14T11:32:40.988Z,23.58
2023-05-14T11:35:08.248Z,24.07
2023-05-14T11:37:34.925Z,25.07
2023-05-14T11:40:07.329Z,26.70
2023-05-14T11:42:33.906Z,26.96
2023-05-14T11:45:00.578Z,28.07
2023-05-14T11:47:29.423Z,29.38
2023-05-14T11:49:56.097Z,30.45
2023-05-14T11:52:22.785Z,31.55
2023-05-14T11:54:49.352Z,32.28
2023-05-14T11:57:19.836Z,32.60
2023-05-14T11:59:47.713Z,33.29
2023-05-14T12:02:16.791Z,32.92
2023-05-14T12:04:44.531Z,32.88
2023-05-14T12:07:12.730Z,32.63
2023-05-14T12:09:43.553Z,33.78
2023-05-14T12:12:12.814Z,34.00
2023-05-14T12:14:42.621Z,34.09
2023-05-14T12:17:13.732Z,34.14
2023-05-14T12:19:41.243Z,34.09
2023-05-14T12:22:08.254Z,32.83
2023-05-14T12:24:34.976Z,31.30
2023-05-14T12:27:03.983Z,29.38
2023-05-14T12:29:30.561Z,28.00
2023-05-14T12:31:58.500Z,27.09
2023-05-14T12:34:25.077Z,26.35
2023-05-14T12:36:51.651Z,25.68
2023-05-14T12:39:18.244Z,25.31
2023-05-14T12:41:44.866Z,25.35
2023-05-14T12:44:11.439Z,26.06
2023-05-14T12:46:38.158Z,26.53
2023-05-14T12:49:06.097Z,27.59
2023-05-14T12:51:34.068Z,28.10
2023-05-14T12:54:00.683Z,28.57
2023-05-14T12:56:27.461Z,28.77
2023-05-14T12:58:55.215Z,29.48
2023-05-14T13:01:21.924Z,30.34
2023-05-14T13:03:48.537Z,31.01
2023-05-14T13:06:16.752Z,31.29
2023-05-14T13:08:43.614Z,31.70
2023-05-14T13:11:10.199Z,32.32
2023-05-14T13:13:36.808Z,32.72
2023-05-14T13:16:03.567Z,32.54
2023-05-14T13:18:30.206Z,33.06
2023-05-14T13:20:56.823Z,32.99
2023-05-14T13:23:25.105Z,33.33
2023-05-14T13:25:51.704Z,33.51
2023-05-14T13:28:18.355Z,33.20
2023-05-14T13:31:04.289Z,34.15
2023-05-14T13:33:30.984Z,32.88
2023-05-14T13:35:57.507Z,31.92
2023-05-14T13:38:25.522Z,30.85
2023-05-14T13:40:52.020Z,29.49
2023-05-14T13:43:18.664Z,28.59
2023-05-14T13:45:45.316Z,27.90
2023-05-14T13:48:11.910Z,27.24
2023-05-14T13:50:38.487Z,26.48
2023-05-14T13:53:05.063Z,26.48
2023-05-14T13:55:32.963Z,26.52
2023-05-14T13:58:01.605Z,26.64
2023-05-14T14:00:28.135Z,26.47
2023-05-14T14:02:54.905Z,26.72
2023-05-14T14:05:21.708Z,26.81
2023-05-14T14:07:50.431Z,26.68
2023-05-14T14:10:18.166Z,26.39
2023-05-14T14:12:46.127Z,26.43
2023-05-14T14:15:12.653Z,26.40
2023-05-14T14:17:39.348Z,26.59
2023-05-14T14:20:07.273Z,26.41
2023-05-14T14:22:33.961Z,26.39
2023-05-14T14:25:00.523Z,26.63
2023-05-14T14:27:27.335Z,26.66
2023-05-14T14:29:55.199Z,26.53
2023-05-14T14:32:21.803Z,26.54
2023-05-14T14:34:48.359Z,26.47
2023-05-14T14:37:14.957Z,26.06
2023-05-14T14:39:41.548Z,25.66
2023-05-14T14:42:08.163Z,25.50
2023-05-14T14:44:34.766Z,25.32
2023-05-14T14:47:02.653Z,25.22
2023-05-14T14:49:29.177Z,25.01
2023-05-14T14:51:55.750Z,25.05
2023-05-14T14:54:22.345Z,24.74
2023-05-14T14:56:48.904Z,24.74
2023-05-14T14:59:15.443Z,24.56
2023-05-14T15:01:42.240Z,24.46
2023-05-14T15:04:10.290Z,24.35
2023-05-14T15:06:36.846Z,24.44
2023-05-14T15:09:03.440Z,24.46
2023-05-14T15:11:30.042Z,24.42
2023-05-14T15:13:56.647Z,24.38
2023-05-14T15:16:23.281Z,24.36
2023-05-14T15:18:49.930Z,24.41
2023-05-14T15:21:17.852Z,24.51
2023-05-14T15:23:44.475Z,24.38
2023-05-14T15:26:11.066Z,24.44
2023-05-14T15:28:37.589Z,24.27
2023-05-14T15:31:05.378Z,24.24
2023-05-14T15:33:31.980Z,24.28
2023-05-14T15:35:58.575Z,24.11
2023-05-14T15:38:26.541Z,24.24
2023-05-14T15:40:53.200Z,24.28
2023-05-14T15:43:19.741Z,24.28
2023-05-14T15:45:46.285Z,24.20
2023-05-14T15:48:12.860Z,24.22
2023-05-14T15:50:39.489Z,24.20
2023-05-14T15:53:06.086Z,24.22
2023-05-14T15:55:34.152Z,24.21
2023-05-14T15:58:00.722Z,24.11
2023-05-14T16:00:27.535Z,23.91
2023-05-14T16:02:54.274Z,23.63
2023-05-14T16:05:21.076Z,23.32
2023-05-14T16:07:47.688Z,23.24
2023-05-14T16:10:14.424Z,23.25
2023-05-14T16:12:42.401Z,23.34
2023-05-14T16:15:09.805Z,23.27
2023-05-14T16:17:36.435Z,23.12
2023-05-14T16:20:03.806Z,22.96
2023-05-14T16:22:30.564Z,22.88
2023-05-14T16:24:57.161Z,22.87
2023-05-14T16:27:23.667Z,22.86
2023-05-14T16:29:52.182Z,22.72
2023-05-14T16:32:18.891Z,22.69
2023-05-14T16:34:45.546Z,22.65
2023-05-14T16:37:13.192Z,22.63
2023-05-14T16:39:40.176Z,22.46
2023-05-14T16:42:06.771Z,22.51
2023-05-14T16:44:33.459Z,22.51
2023-05-14T16:47:01.429Z,22.49
2023-05-14T16:49:27.952Z,22.38
2023-05-14T16:51:54.502Z,22.32
2023-05-14T16:54:21.024Z,22.25
2023-05-14T16:56:47.647Z,22.20
2023-05-14T16:59:14.466Z,22.15
2023-05-14T17:01:41.109Z,22.03
2023-05-14T17:04:09.293Z,21.95
2023-05-14T17:06:36.193Z,21.92
2023-05-14T17:09:03.108Z,21.96
2023-05-14T17:11:29.891Z,21.88
2023-05-14T17:13:56.459Z,21.86
2023-05-14T17:16:23.077Z,21.86
2023-05-14T17:18:49.762Z,21.86
2023-05-14T17:21:17.717Z,21.76
2023-05-14T17:23:44.288Z,21.69
2023-05-14T17:26:10.923Z,21.68
2023-05-14T17:28:37.476Z,21.55
2023-05-14T17:31:04.132Z,21.51
2023-05-14T17:33:30.768Z,21.43
2023-05-14T17:35:57.904Z,21.36
2023-05-14T17:38:25.941Z,21.31
2023-05-14T17:40:52.508Z,21.29
2023-05-14T17:43:19.878Z,21.17
2023-05-14T17:57:10.594Z,20.76
2023-05-14T18:03:43.996Z,20.62
2023-05-14T18:06:10.671Z,20.56
2023-05-14T18:08:37.219Z,20.48
2023-05-14T18:11:03.764Z,20.39
2023-05-14T18:13:31.656Z,20.37
2023-05-14T18:15:58.335Z,20.32
2023-05-14T18:18:24.962Z,20.23
2023-05-14T18:20:51.576Z,20.15
2023-05-14T18:23:18.183Z,20.11
2023-05-14T18:25:44.807Z,20.05
2023-05-14T18:28:11.543Z,19.99
2023-05-14T18:30:39.605Z,19.91
2023-05-14T18:33:06.246Z,19.89
2023-05-14T18:35:32.833Z,19.85
2023-05-14T18:37:59.361Z,19.80
2023-05-14T18:40:25.897Z,19.74
2023-05-14T18:42:52.459Z,19.72
2023-05-14T18:45:19.032Z,19.69
2023-05-14T18:47:47.129Z,19.61
2023-05-14T18:50:13.872Z,19.55
2023-05-14T18:52:40.407Z,19.55
2023-05-14T18:55:07.770Z,19.48
2023-05-14T18:57:34.510Z,19.45
2023-05-14T19:00:01.092Z,19.38
2023-05-14T19:02:27.829Z,19.35
2023-05-14T19:04:55.697Z,19.29
2023-05-14T19:07:22.521Z,19.23
2023-05-14T19:09:49.187Z,19.20
2023-05-14T19:12:15.772Z,19.16
2023-05-14T19:14:42.334Z,19.10
2023-05-14T19:17:08.997Z,19.04
2023-05-14T19:19:35.597Z,19.01
2023-05-14T19:22:03.614Z,18.99
2023-05-14T19:24:30.193Z,18.99
2023-05-14T19:26:57.009Z,18.95
2023-05-14T19:29:23.567Z,18.90
2023-05-14T19:31:50.186Z,18.84
2023-05-14T19:34:16.877Z,18.71
2023-05-14T19:36:43.412Z,18.69
2023-05-14T19:39:11.470Z,18.69
2023-05-14T19:41:38.077Z,18.71
2023-05-14T19:44:04.591Z,18.61
2023-05-14T19:46:31.266Z,18.58
2023-05-14T19:48:57.920Z,18.47
2023-05-14T19:51:24.539Z,18.45
2023-05-14T19:53:51.133Z,18.41
2023-05-14T19:56:19.109Z,18.31
2023-05-14T19:58:45.682Z,18.30
2023-05-14T20:01:12.296Z,18.24
2023-05-14T20:03:39.281Z,18.16
2023-05-14T20:06:06.184Z,18.12
2023-05-14T20:08:32.963Z,18.05
2023-05-14T20:11:01.408Z,18.05
2023-05-14T20:13:30.030Z,17.99
2023-05-14T20:15:57.148Z,17.96
2023-05-14T20:18:24.163Z,17.90
2023-05-14T20:20:50.780Z,17.87
2023-05-14T20:23:17.598Z,17.82
2023-05-14T20:25:44.281Z,17.75
2023-05-14T20:28:11.144Z,17.72
2023-05-14T20:30:39.917Z,17.66
2023-05-14T20:33:07.139Z,17.60
2023-05-14T20:39:38.166Z,17.51
2023-05-14T20:42:05.442Z,17.46
2023-05-14T20:44:32.004Z,17.39
2023-05-14T20:47:00.036Z,17.35
2023-05-14T20:49:28.455Z,17.32
2023-05-14T20:51:55.516Z,17.24
2023-05-14T20:54:26.336Z,17.18
2023-05-14T20:57:00.889Z,17.13
2023-05-14T20:59:33.363Z,17.11
2023-05-14T21:02:04.959Z,17.08
2023-05-14T21:04:34.270Z,17.03
2023-05-14T21:07:02.609Z,16.99
2023-05-14T21:09:30.587Z,16.94
2023-05-14T21:40:20.576Z,16.44
2023-05-14T21:42:47.253Z,16.38
2023-05-14T21:45:14.092Z,16.34
2023-05-14T21:47:40.929Z,16.33
2023-05-14T21:50:08.308Z,16.29
2023-05-14T21:52:34.882Z,16.26
2023-05-14T21:55:01.447Z,16.20
2023-05-14T21:57:31.840Z,16.18
2023-05-14T22:16:48.589Z,15.86
2023-05-14T22:19:16.110Z,15.78
2023-05-14T22:21:42.742Z,15.72
2023-05-14T22:24:09.411Z,15.71
2023-05-14T22:26:36.087Z,15.66
2023-05-14T22:29:02.732Z,15.59
2023-05-14T22:31:29.390Z,15.59
2023-05-14T22:33:58.458Z,15.47
2023-05-14T22:36:25.056Z,15.41
2023-05-14T22:38:51.620Z,15.40
2023-05-14T22:41:18.234Z,15.35
2023-05-14T22:43:44.794Z,15.38
2023-05-14T22:46:11.586Z,15.34
2023-05-14T22:48:38.258Z,15.31
2023-05-14T22:51:06.253Z,15.22
2023-05-14T22:53:32.950Z,15.23
2023-05-14T22:55:59.535Z,15.20
2023-05-14T22:58:26.138Z,15.09
2023-05-14T23:00:52.942Z,15.06
2023-05-14T23:03:19.621Z,15.02
2023-05-14T23:05:46.259Z,14.99
2023-05-14T23:08:14.262Z,14.94
2023-05-14T23:10:40.884Z,14.96
2023-05-14T23:13:07.539Z,14.90
2023-05-14T23:15:34.217Z,14.90
2023-05-14T23:18:01.007Z,14.92
2023-05-14T23:20:27.669Z,14.87
2023-05-14T23:22:54.251Z,14.92
2023-05-14T23:25:22.459Z,14.84
2023-05-14T23:27:49.347Z,14.85
2023-05-14T23:30:15.945Z,14.85
2023-05-14T23:32:42.570Z,14.85
2023-05-14T23:35:10.217Z,14.78
2023-05-14T23:37:37.033Z,14.76
2023-05-14T23:40:04.520Z,14.74
2023-05-14T23:42:32.412Z,14.68
2023-05-14T23:44:58.925Z,14.63
2023-05-14T23:47:25.623Z,14.60
2023-05-14T23:49:52.392Z,14.58
2023-05-14T23:52:19.072Z,14.48
2023-05-14T23:54:45.601Z,14.40
2023-05-14T23:57:14.223Z,14.38
2023-05-14T23:59:42.510Z,14.27
